Atlantic Beach, NC

7:17 AM EDT on March 28, 2015 (GMT -0400)
Sound View | | Change Station
CLOSE
Current Station
Personal Weather Station
Location: Newport, NC
Elevation: 13 ft
Nearby Weather Stations
Active Advisory: Freeze Warning

Elev 13 ft 34.73 °N, 76.86 °W | Updated 7 minutes ago

Mostly Cloudy
Mostly Cloudy
38.7 °F
Feels Like 39 °F
N
2.2
Wind Variable Wind from WNW

Today
High -- | Low -- °F
--% Chance of Precip.
Yesterday
High -- | Low -- °F
Precip. -- in
7:00 AM 7:25 PM
First Quarter, 61% visible
Pressure 29.91 in
Visibility 10.0 miles
Clouds Few 1900 ft
Scattered Clouds 2900 ft
Windchill 39 °F
Dew Point 38 °F
Humidity 99%
Rainfall 0.00 in
Snow Depth Not available.
UV 0 out of 12
Pollen 9.20 out of 12
Air Quality Not available.
Flu Activity Not available.
METAR KMRH 281054Z AUTO 31013KT 10SM FEW019 SCT029 05/03 A2990 RMK AO2 SLP127 T00500033 TSNO

More Conditions Fewer Conditions

Pressure 29.91 in
Visibility 10.0 miles
Clouds Few 1900 ft
Scattered Clouds 2900 ft
Windchill 39 °F
Dew Point 38 °F
Humidity 99%
Rainfall 0.00 in
Snow Depth Not available.
UV 0 out of 12
Pollen 9.20 out of 12
Air Quality Not available.
Flu Activity Not available.
METAR KMRH 281054Z AUTO 31013KT 10SM FEW019 SCT029 05/03 A2990 RMK AO2 SLP127 T00500033 TSNO

More Conditions Fewer Conditions

10-Day Weather Forecast

Almanac

Astronomy

Mar. 28, 2015 Rise Set
Actual Time
Civil Twilight
Nautical Twilight
Astronomical Twilight
Moon
Length of Visible Light
Length of Day
Tomorrow will be .
, % of the Moon is Illuminated

Today's Extremes

State Highs State Lows

Community

WunderPhotos

Upload Photos

1,808,956 photos uploaded!

WunderBlogs® & News

Nearby

Air Quality

  Air Quality AQ Index Pollutant
Not available.

Snow Depth

Station Depth Elevation

Earthquake Activity

City Distance Mag. Time & Date
Minimum magnitude displayed is 2.5.

Coastal Water Temperatures

Place Temperature

Stations

Nearby Weather Stations

Station Location Temp. Windchill Dew Point Humidity Wind Precip. Elev Updated Type
                   
Freeze Warning
Statement as of 7:12 AM EDT on March 28, 2015

... Freeze warning remains in effect from 1 am to 8 am EDT
Sunday...

* temperatures... mid to upper 20s inland... and upper 20s to lower
30s along the coast.

* Timing... tonight into early Sunday morning.

* Impacts... cold temperatures will damage or kill sensitive
plants.

Precautionary/preparedness actions...

A freeze warning means sub-freezing temperatures are imminent or
highly likely. These conditions will kill crops and other
sensitive vegetation.